Redwood City, CA

11:23 AM PST on January 29, 2015 (GMT -0800)
San Carlos Plaza | Change Station
CLOSE
Current Station
Personal Weather Station
Location: San Carlos, CA
Elevation: 23 ft
Nearby Weather Stations

Elev 23 ft 37.51 °N, 122.26 °W | Updated 3 minutes ago

Partly Cloudy
Partly Cloudy
63.5 °F
Feels Like 63.5 °F
N
0.0
Wind Variable Wind from East
Gusts 0.0 mph

Today
High -- | Low -- °F
--% Chance of Precip.
Yesterday
High -- | Low -- °F
Precip. -- in
7:14 AM 5:29 PM
Waxing Gibbous, 76% visible
Pressure 30.17 in
Visibility 3.0 miles
Clouds Few 10000 ft
Dew Point 53 °F
Humidity 68%
Rainfall 0.00 in
Snow Depth Not available.
UV 3 out of 12
Pollen 5.20 out of 12
Air Quality Not available.
Flu Activity Not available.
METAR KSQL 291847Z 00000KT 3SM BR FEW100 12/12 A3017

More Conditions Fewer Conditions

Pressure 30.17 in
Visibility 3.0 miles
Clouds Few 10000 ft
Dew Point 53 °F
Humidity 68%
Rainfall 0.00 in
Snow Depth Not available.
UV 3 out of 12
Pollen 5.20 out of 12
Air Quality Not available.
Flu Activity Not available.
METAR KSQL 291847Z 00000KT 3SM BR FEW100 12/12 A3017

More Conditions Fewer Conditions

10-Day Weather Forecast

Almanac

Astronomy

Jan. 29, 2015 Rise Set
Actual Time
Civil Twilight
Nautical Twilight
Astronomical Twilight
Moon
Length of Visible Light
Length of Day
Tomorrow will be .
, % of the Moon is Illuminated

Today's Extremes

State Highs State Lows

Community

WunderPhotos

Upload Photos

1,791,566 photos uploaded!

WunderBlogs® & News

Nearby

Air Quality

  Air Quality AQ Index Pollutant
Not available.

Snow Depth

Station Depth Elevation

Earthquake Activity

City Distance Mag. Time & Date
Minimum magnitude displayed is 2.5.

Coastal Water Temperatures

Place Temperature

Nearby Weather Stations